createdAt,value
2016-12-25T00:00:08.984Z,0
2016-12-25T00:01:10.139Z,0
2016-12-25T00:02:09.471Z,0
2016-12-25T00:03:09.461Z,0
2016-12-25T00:04:09.392Z,0
2016-12-25T00:05:09.648Z,0
2016-12-25T00:06:09.928Z,0
2016-12-25T00:07:09.269Z,0
2016-12-25T00:08:09.846Z,0
2016-12-25T00:09:09.193Z,0
2016-12-25T00:10:09.753Z,0
2016-12-25T00:11:09.123Z,0
2016-12-25T00:12:09.073Z,0
2016-12-25T00:13:09.338Z,0
2016-12-25T00:14:09.592Z,0
2016-12-25T00:15:09.555Z,0
2016-12-25T00:16:09.223Z,0
2016-12-25T00:17:09.189Z,0
2016-12-25T00:18:09.439Z,0
2016-12-25T00:19:09.092Z,0
2016-12-25T00:20:09.354Z,0
2016-12-25T00:21:09.313Z,0
2016-12-25T00:22:08.995Z,0
2016-12-25T00:23:09.237Z,0
2016-12-25T00:24:08.591Z,0
2016-12-25T00:25:08.854Z,0
2016-12-25T00:26:09.146Z,0
2016-12-25T00:27:08.793Z,0
2016-12-25T00:28:09.050Z,0
2016-12-25T00:29:08.698Z,0
2016-12-25T00:30:08.660Z,0
2016-12-25T00:31:08.315Z,0
2016-12-25T00:32:08.579Z,0
2016-12-25T00:33:08.534Z,0
2016-12-25T00:34:08.500Z,0
2016-12-25T00:35:08.161Z,0
2016-12-25T00:36:08.441Z,0
2016-12-25T00:37:07.776Z,0
2016-12-25T00:38:08.342Z,0
2016-12-25T00:39:08.299Z,0
2016-12-25T00:40:08.561Z,0
2016-12-25T00:41:07.925Z,0
2016-12-25T00:42:08.215Z,0
2016-12-25T00:43:08.446Z,0
2016-12-25T00:44:08.426Z,0
2016-12-25T00:45:08.067Z,0
2016-12-25T00:46:08.324Z,0
2016-12-25T00:47:08.281Z,0
2016-12-25T00:48:07.638Z,0
2016-12-25T00:49:08.209Z,0
2016-12-25T00:50:08.165Z,0
2016-12-25T00:51:07.543Z,0
2016-12-25T00:52:07.787Z,0
2016-12-25T00:53:08.045Z,0
2016-12-25T00:54:07.397Z,0
2016-12-25T00:55:07.963Z,0
2016-12-25T00:56:07.625Z,0
2016-12-25T00:57:07.286Z,0
2016-12-25T00:58:07.540Z,0
2016-12-25T00:59:07.501Z,0
2016-12-25T01:00:07.771Z,0
2016-12-25T01:01:07.426Z,0
2016-12-25T01:02:07.084Z,0
2016-12-25T01:03:07.348Z,0
2016-12-25T01:04:07.622Z,0
2016-12-25T01:05:07.271Z,0
2016-12-25T01:06:07.225Z,0
2016-12-25T01:07:06.893Z,0
2016-12-25T01:08:07.149Z,0
2016-12-25T01:09:07.108Z,0
2016-12-25T01:10:07.370Z,0
2016-12-25T01:11:07.027Z,0
2016-12-25T01:12:06.692Z,0
2016-12-25T01:13:06.656Z,0
2016-12-25T01:14:06.918Z,0
2016-12-25T01:15:06.872Z,0
2016-12-25T01:16:06.827Z,0
2016-12-25T01:17:06.489Z,0
2016-12-25T01:18:06.753Z,0
2016-12-25T01:19:07.012Z,0
2016-12-25T01:20:06.670Z,0
2016-12-25T01:21:06.333Z,0
2016-12-25T01:22:06.594Z,0
2016-12-25T01:23:06.253Z,0
2016-12-25T01:24:06.211Z,0
2016-12-25T01:25:06.781Z,0
2016-12-25T01:26:06.434Z,0
2016-12-25T01:27:06.709Z,0
2016-12-25T01:28:06.047Z,0
2016-12-25T01:29:06.317Z,0
2016-12-25T01:30:06.284Z,0
2016-12-25T01:31:05.626Z,0
2016-12-25T01:32:06.501Z,0
2016-12-25T01:33:06.457Z,0
2016-12-25T01:34:06.123Z,0
2016-12-25T01:35:06.074Z,0
2016-12-25T01:36:06.341Z,0
2016-12-25T01:37:06.306Z,0
2016-12-25T01:38:05.957Z,0
2016-12-25T01:39:06.231Z,0
2016-12-25T01:40:05.906Z,0
2016-12-25T01:41:06.143Z,0
2016-12-25T01:42:06.098Z,0
2016-12-25T01:43:06.062Z,0
2016-12-25T01:44:05.418Z,0
2016-12-25T01:45:05.681Z,0
2016-12-25T01:46:05.942Z,0
2016-12-25T01:47:05.605Z,0
2016-12-25T01:48:05.565Z,0
2016-12-25T01:49:05.826Z,0
2016-12-25T01:50:05.809Z,0
2016-12-25T01:51:05.745Z,0
2016-12-25T01:52:05.104Z,0
2016-12-25T01:53:05.371Z,0
2016-12-25T01:54:04.734Z,0
2016-12-25T01:55:05.286Z,0
2016-12-25T01:56:05.248Z,0
2016-12-25T01:57:05.515Z,0
2016-12-25T01:58:05.175Z,0
2016-12-25T01:59:05.133Z,0
2016-12-25T02:00:05.089Z,0
2016-12-25T02:01:05.353Z,0
2016-12-25T02:02:05.010Z,0
2016-12-25T02:03:04.978Z,0
2016-12-25T02:04:04.932Z,0
2016-12-25T02:05:04.593Z,0
2016-12-25T02:06:04.868Z,0
2016-12-25T02:07:04.818Z,0
2016-12-25T02:08:05.079Z,0
2016-12-25T02:09:05.040Z,0
2016-12-25T02:10:04.693Z,0
2016-12-25T02:11:04.661Z,0
2016-12-25T02:12:04.924Z,0
2016-12-25T02:13:04.881Z,0
2016-12-25T02:14:04.846Z,0
2016-12-25T02:15:04.809Z,0
2016-12-25T02:16:04.468Z,0
2016-12-25T02:17:04.439Z,0
2016-12-25T02:18:04.686Z,0
2016-12-25T02:19:04.656Z,0
2016-12-25T02:20:04.609Z,0
2016-12-25T02:21:03.959Z,0
2016-12-25T02:22:03.628Z,0
2016-12-25T02:23:03.574Z,0
2016-12-25T02:24:04.446Z,0
2016-12-25T02:25:04.412Z,0
2016-12-25T02:26:04.376Z,0
2016-12-25T02:27:04.055Z,0
2016-12-25T02:28:03.709Z,0
2016-12-25T02:29:04.270Z,0
2016-12-25T02:30:03.301Z,0
2016-12-25T02:31:04.173Z,0
2016-12-25T02:32:03.524Z,0
2016-12-25T02:33:04.093Z,0
2016-12-25T02:34:03.749Z,0
2016-12-25T02:35:03.712Z,0
2016-12-25T02:36:03.372Z,0
2016-12-25T02:37:03.328Z,0
2016-12-25T02:38:03.927Z,0
2016-12-25T02:39:03.856Z,0
2016-12-25T02:40:03.816Z,0
2016-12-25T02:41:03.477Z,0
2016-12-25T02:42:03.742Z,0
2016-12-25T02:43:03.102Z,0
2016-12-25T02:44:03.661Z,0
2016-12-25T02:45:03.314Z,0
2016-12-25T02:46:03.611Z,0
2016-12-25T02:47:03.541Z,0
2016-12-25T02:48:03.197Z,0
2016-12-25T02:49:03.160Z,0
2016-12-25T02:50:02.818Z,0
2016-12-25T02:51:03.380Z,0
2016-12-25T02:52:03.346Z,0
2016-12-25T02:53:03.301Z,0
2016-12-25T02:54:02.968Z,0
2016-12-25T02:55:03.226Z,0
2016-12-25T02:56:02.579Z,0
2016-12-25T02:57:02.840Z,0
2016-12-25T02:58:03.107Z,0
2016-12-25T02:59:02.770Z,0
2016-12-25T03:00:03.026Z,0
2016-12-25T03:01:02.693Z,0
2016-12-25T03:02:02.946Z,0
2016-12-25T03:03:02.602Z,0
2016-12-25T03:04:02.570Z,0
2016-12-25T03:05:02.831Z,0
2016-12-25T03:06:02.493Z,0
2016-12-25T03:07:02.453Z,0
2016-12-25T03:08:02.713Z,0
2016-12-25T03:09:02.703Z,0
2016-12-25T03:10:02.335Z,0
2016-12-25T03:11:01.982Z,0
2016-12-25T03:12:02.260Z,0
2016-12-25T03:13:01.904Z,0
2016-12-25T03:14:02.478Z,0
2016-12-25T03:15:02.133Z,0
2016-12-25T03:16:01.790Z,0
2016-12-25T03:17:02.352Z,0
2016-12-25T03:18:02.008Z,0
2016-12-25T03:19:01.974Z,0
2016-12-25T03:20:01.935Z,0
2016-12-25T03:21:01.894Z,0
2016-12-25T03:22:01.864Z,0
2016-12-25T03:23:01.834Z,0
2016-12-25T03:24:01.476Z,0
2016-12-25T03:25:02.042Z,0
2016-12-25T03:26:01.693Z,0
2016-12-25T03:27:01.654Z,0
2016-12-25T03:28:01.621Z,0
2016-12-25T03:29:01.890Z,0
2016-12-25T03:30:01.569Z,0
2016-12-25T03:31:01.797Z,0
2016-12-25T03:32:01.759Z,0
2016-12-25T03:33:01.730Z,0
2016-12-25T03:34:01.686Z,0
2016-12-25T03:35:01.337Z,0
2016-12-25T03:36:01.297Z,0
2016-12-25T03:37:01.560Z,0
2016-12-25T03:38:01.227Z,0
2016-12-25T03:39:00.876Z,0
2016-12-25T03:40:01.143Z,0
2016-12-25T03:41:01.103Z,0
2016-12-25T03:42:00.759Z,0
2016-12-25T03:43:01.432Z,0
2016-12-25T03:44:00.984Z,0
2016-12-25T03:45:01.244Z,0
2016-12-25T03:46:01.206Z,0
2016-12-25T03:47:00.865Z,0
2016-12-25T03:48:00.819Z,0
2016-12-25T03:49:01.086Z,0
2016-12-25T03:50:00.129Z,0
2016-12-25T03:51:00.704Z,0
2016-12-25T03:52:00.969Z,0
2016-12-25T03:53:00.624Z,0
2016-12-25T03:54:00.887Z,0
2016-12-25T03:55:00.545Z,0
2016-12-25T03:56:00.201Z,0
2016-12-25T03:57:00.461Z,0
2016-12-25T03:58:00.728Z,0
2016-12-25T03:58:59.787Z,0
2016-12-25T04:00:00.349Z,0
2016-12-25T04:00:59.711Z,0
2016-12-25T04:01:59.663Z,0
2016-12-25T04:03:00.233Z,0
2016-12-25T04:03:59.578Z,0
2016-12-25T04:05:00.147Z,0
2016-12-25T04:06:00.416Z,0
2016-12-25T04:07:00.366Z,0
2016-12-25T04:08:00.329Z,0
2016-12-25T04:09:00.292Z,0
2016-12-25T04:09:59.655Z,0
2016-12-25T04:11:00.215Z,0
2016-12-25T04:11:59.864Z,0
2016-12-25T04:13:00.134Z,0
2016-12-25T04:13:59.793Z,0
2016-12-25T04:14:59.751Z,0
2016-12-25T04:15:59.709Z,0
2016-12-25T04:16:59.978Z,0
2016-12-25T04:17:59.326Z,0
2016-12-25T04:18:59.285Z,0
2016-12-25T04:19:59.850Z,0
2016-12-25T04:20:59.811Z,0
2016-12-25T04:21:58.867Z,0
2016-12-25T04:22:59.432Z,0
2016-12-25T04:23:59.700Z,0
2016-12-25T04:24:59.356Z,0
2016-12-25T04:25:59.610Z,0
2016-12-25T04:26:59.270Z,0
2016-12-25T04:27:58.930Z,0
2016-12-25T04:28:59.190Z,0
2016-12-25T04:29:59.447Z,0
2016-12-25T04:30:59.411Z,0
2016-12-25T04:31:59.372Z,0
2016-12-25T04:32:59.338Z,0
2016-12-25T04:33:58.988Z,0
2016-12-25T04:34:58.652Z,0
2016-12-25T04:35:58.612Z,0
2016-12-25T04:36:58.577Z,0
2016-12-25T04:37:58.833Z,0
2016-12-25T04:38:58.793Z,0
2016-12-25T04:39:58.752Z,0
2016-12-25T04:40:59.017Z,0
2016-12-25T04:41:58.982Z,0
2016-12-25T04:42:58.937Z,0
2016-12-25T04:43:58.597Z,0
2016-12-25T04:44:58.255Z,0
2016-12-25T04:45:58.819Z,0
2016-12-25T04:46:58.480Z,0
2016-12-25T04:47:58.443Z,0
2016-12-25T04:48:58.697Z,0
2016-12-25T04:49:58.355Z,0
2016-12-25T04:50:58.012Z,0
2016-12-25T04:51:57.980Z,0
2016-12-25T04:52:58.235Z,0
2016-12-25T04:53:58.501Z,0
2016-12-25T04:54:58.161Z,0
2016-12-25T04:55:58.116Z,0
2016-12-25T04:56:58.077Z,0
2016-12-25T04:57:57.742Z,0
2016-12-25T04:58:58.005Z,0
2016-12-25T04:59:58.254Z,0
2016-12-25T05:00:58.225Z,0
2016-12-25T05:01:57.577Z,0
2016-12-25T05:02:58.146Z,0
2016-12-25T05:03:57.498Z,0
2016-12-25T05:04:57.757Z,0
2016-12-25T05:05:57.719Z,0
2016-12-25T05:06:57.676Z,0
2016-12-25T05:07:57.337Z,0
2016-12-25T05:08:57.599Z,0
2016-12-25T05:09:57.860Z,0
2016-12-25T05:10:57.828Z,0
2016-12-25T05:11:57.480Z,0
2016-12-25T05:12:57.440Z,0
2016-12-25T05:13:57.396Z,0
2016-12-25T05:14:57.361Z,0
2016-12-25T05:15:57.015Z,0
2016-12-25T05:16:57.588Z,0
2016-12-25T05:17:56.940Z,0
2016-12-25T05:18:57.504Z,0
2016-12-25T05:19:57.464Z,0
2016-12-25T05:20:56.817Z,0
2016-12-25T05:21:57.087Z,0
2016-12-25T05:22:57.044Z,0
2016-12-25T05:23:56.998Z,0
2016-12-25T05:24:57.271Z,0
2016-12-25T05:25:56.920Z,0
2016-12-25T05:26:56.878Z,0
2016-12-25T05:27:56.238Z,0
2016-12-25T05:28:56.802Z,0
2016-12-25T05:29:56.760Z,0
2016-12-25T05:30:56.725Z,0
2016-12-25T05:31:56.983Z,0
2016-12-25T05:32:56.643Z,0
2016-12-25T05:33:56.600Z,0
2016-12-25T05:34:56.261Z,0
2016-12-25T05:35:55.914Z,0
2016-12-25T05:36:56.795Z,0
2016-12-25T05:37:56.442Z,0
2016-12-25T05:38:56.708Z,0
2016-12-25T05:39:56.670Z,0
2016-12-25T05:40:56.021Z,0
2016-12-25T05:41:56.285Z,0
2016-12-25T05:42:56.242Z,0
2016-12-25T05:43:56.507Z,0
2016-12-25T05:44:56.167Z,0
2016-12-25T05:45:56.423Z,0
2016-12-25T05:46:56.383Z,0
2016-12-25T05:47:55.746Z,0
2016-12-25T05:48:56.003Z,0
2016-12-25T05:49:56.276Z,0
2016-12-25T05:50:55.926Z,0
2016-12-25T05:51:56.194Z,0
2016-12-25T05:52:55.850Z,0
2016-12-25T05:53:55.805Z,0
2016-12-25T05:54:55.780Z,0
2016-12-25T05:55:55.420Z,0
2016-12-25T05:56:55.989Z,0
2016-12-25T05:57:55.943Z,0
2016-12-25T05:58:55.301Z,0
2016-12-25T05:59:55.570Z,0
2016-12-25T06:00:55.223Z,0
2016-12-25T06:01:55.487Z,0
2016-12-25T06:02:55.748Z,0
2016-12-25T06:03:55.409Z,0
2016-12-25T06:04:55.367Z,0
2016-12-25T06:05:55.627Z,0
2016-12-25T06:06:55.586Z,0
2016-12-25T06:07:55.553Z,0
2016-12-25T06:08:55.207Z,0
2016-12-25T06:09:55.171Z,0
2016-12-25T06:10:55.153Z,0
2016-12-25T06:11:55.087Z,0
2016-12-25T06:12:55.356Z,0
2016-12-25T06:13:55.308Z,0
2016-12-25T06:14:55.270Z,0
2016-12-25T06:15:54.928Z,0
2016-12-25T06:16:54.888Z,0
2016-12-25T06:17:55.147Z,0
2016-12-25T06:18:54.811Z,0
2016-12-25T06:19:54.764Z,0
2016-12-25T06:20:54.728Z,0
2016-12-25T06:21:54.722Z,0
2016-12-25T06:22:54.947Z,0
2016-12-25T06:23:54.309Z,0
2016-12-25T06:24:54.567Z,0
2016-12-25T06:25:54.263Z,0
2016-12-25T06:26:54.492Z,0
2016-12-25T06:27:54.752Z,0
2016-12-25T06:28:54.415Z,0
2016-12-25T06:29:54.377Z,0
2016-12-25T06:30:54.336Z,0
2016-12-25T06:31:54.590Z,0
2016-12-25T06:32:54.554Z,0
2016-12-25T06:33:53.925Z,0
2016-12-25T06:34:54.478Z,0
2016-12-25T06:35:54.436Z,0
2016-12-25T06:36:54.413Z,0
2016-12-25T06:37:54.058Z,0
2016-12-25T06:38:54.016Z,0
2016-12-25T06:39:54.277Z,0
2016-12-25T06:40:54.256Z,0
2016-12-25T06:41:54.195Z,0
2016-12-25T06:42:53.854Z,0
2016-12-25T06:43:54.117Z,0
2016-12-25T06:44:54.082Z,0
2016-12-25T06:45:53.734Z,0
2016-12-25T06:46:53.997Z,0
2016-12-25T06:47:53.655Z,0
2016-12-25T06:48:53.622Z,0
2016-12-25T06:49:53.578Z,0
2016-12-25T06:50:53.843Z,0
2016-12-25T06:51:53.502Z,0
2016-12-25T06:52:53.456Z,0
2016-12-25T06:53:53.720Z,0
2016-12-25T06:54:53.379Z,0
2016-12-25T06:55:53.639Z,0
2016-12-25T06:56:53.601Z,0
2016-12-25T06:57:52.954Z,0
2016-12-25T06:58:53.214Z,0
2016-12-25T06:59:53.477Z,0
2016-12-25T07:00:53.136Z,0
2016-12-25T07:01:53.405Z,0
2016-12-25T07:02:53.062Z,0
2016-12-25T07:03:52.722Z,0
2016-12-25T07:04:52.686Z,0
2016-12-25T07:05:53.242Z,0
2016-12-25T07:06:52.596Z,0
2016-12-25T07:07:52.864Z,0
2016-12-25T07:08:52.819Z,0
2016-12-25T07:09:52.478Z,0
2016-12-25T07:10:52.741Z,0
2016-12-25T07:11:53.008Z,0
2016-12-25T07:12:52.960Z,0
2016-12-25T07:13:52.929Z,0
2016-12-25T07:14:52.583Z,0
2016-12-25T07:15:52.540Z,0
2016-12-25T07:16:52.803Z,0
2016-12-25T07:17:52.463Z,0
2016-12-25T07:18:52.449Z,0
2016-12-25T07:19:52.382Z,0
2016-12-25T07:20:52.640Z,0
2016-12-25T07:21:52.308Z,0
2016-12-25T07:22:52.262Z,0
2016-12-25T07:23:51.625Z,0
2016-12-25T07:24:52.182Z,0
2016-12-25T07:25:52.445Z,5
2016-12-25T07:26:52.104Z,5
2016-12-25T07:27:52.069Z,5
2016-12-25T07:28:52.038Z,5
2016-12-25T07:29:52.285Z,5
2016-12-25T07:30:52.247Z,5
2016-12-25T07:31:52.211Z,5
2016-12-25T07:32:51.566Z,5
2016-12-25T07:33:51.825Z,5
2016-12-25T07:34:51.777Z,5
2016-12-25T07:35:51.446Z,5
2016-12-25T07:36:51.700Z,10
2016-12-25T07:37:51.666Z,10
2016-12-25T07:38:51.931Z,10
2016-12-25T07:39:51.888Z,10
2016-12-25T07:40:51.577Z,5
2016-12-25T07:41:51.806Z,10
2016-12-25T07:42:51.171Z,10
2016-12-25T07:43:51.727Z,10
2016-12-25T07:44:51.392Z,10
2016-12-25T07:45:51.649Z,10
2016-12-25T07:46:51.609Z,10
2016-12-25T07:47:51.267Z,10
2016-12-25T07:48:51.227Z,10
2016-12-25T07:49:51.491Z,10
2016-12-25T07:50:51.449Z,10
2016-12-25T07:51:50.505Z,10
2016-12-25T07:52:51.374Z,10
2016-12-25T07:53:50.729Z,10
2016-12-25T07:54:50.990Z,10
2016-12-25T07:55:51.254Z,10
2016-12-25T07:56:50.905Z,10
2016-12-25T07:57:50.878Z,10
2016-12-25T07:58:51.134Z,10
2016-12-25T07:59:50.796Z,10
2016-12-25T08:00:50.755Z,10
2016-12-25T08:01:51.012Z,10
2016-12-25T08:02:50.370Z,10
2016-12-25T08:03:50.326Z,15
2016-12-25T08:04:50.892Z,15
2016-12-25T08:05:50.548Z,10
2016-12-25T08:06:50.212Z,10
2016-12-25T08:07:50.778Z,10
2016-12-25T08:08:49.831Z,10
2016-12-25T08:09:50.694Z,10
2016-12-25T08:10:50.357Z,10
2016-12-25T08:11:50.013Z,10
2016-12-25T08:12:50.274Z,15
2016-12-25T08:13:50.233Z,15
2016-12-25T08:14:50.501Z,15
2016-12-25T08:15:49.552Z,15
2016-12-25T08:16:50.420Z,15
2016-12-25T08:17:50.073Z,20
2016-12-25T08:18:49.738Z,20
2016-12-25T08:19:49.690Z,20
2016-12-25T08:20:50.260Z,20
2016-12-25T08:21:50.220Z,20
2016-12-25T08:22:49.879Z,25
2016-12-25T08:23:49.235Z,25
2016-12-25T08:24:49.496Z,25
2016-12-25T08:25:49.761Z,20
2016-12-25T08:26:49.112Z,20
2016-12-25T08:27:49.685Z,20
2016-12-25T08:28:49.038Z,20
2016-12-25T08:29:49.924Z,20
2016-12-25T08:30:49.256Z,20
2016-12-25T08:31:49.212Z,20
2016-12-25T08:32:49.782Z,20
2016-12-25T08:33:49.445Z,25
2016-12-25T08:34:49.701Z,25
2016-12-25T08:35:49.356Z,25
2016-12-25T08:36:49.618Z,25
2016-12-25T08:37:49.290Z,30
2016-12-25T08:38:49.543Z,30
2016-12-25T08:39:49.519Z,30
2016-12-25T08:40:49.160Z,30
2016-12-25T08:41:49.127Z,30
2016-12-25T08:42:49.387Z,30
2016-12-25T08:43:48.750Z,30
2016-12-25T08:44:49.003Z,30
2016-12-25T08:45:49.270Z,30
2016-12-25T08:46:48.621Z,30
2016-12-25T08:47:48.880Z,30
2016-12-25T08:48:49.146Z,30
2016-12-25T08:49:48.802Z,30
2016-12-25T08:50:49.067Z,30
2016-12-25T08:51:48.719Z,30
2016-12-25T08:52:48.986Z,30
2016-12-25T08:53:48.650Z,30
2016-12-25T08:54:48.610Z,30
2016-12-25T08:55:48.566Z,35
2016-12-25T08:56:48.843Z,35
2016-12-25T08:57:48.800Z,40
2016-12-25T08:58:47.841Z,40
2016-12-25T08:59:47.835Z,40
2016-12-25T09:00:48.665Z,45
2016-12-25T09:01:48.638Z,40
2016-12-25T09:02:48.628Z,40
2016-12-25T09:03:48.253Z,40
2016-12-25T09:04:48.216Z,40
2016-12-25T09:05:48.183Z,40
2016-12-25T09:06:48.433Z,40
2016-12-25T09:07:47.491Z,40
2016-12-25T09:08:48.371Z,40
2016-12-25T09:09:48.025Z,35
2016-12-25T09:10:47.990Z,35
2016-12-25T09:11:47.637Z,35
2016-12-25T09:12:48.214Z,35
2016-12-25T09:13:47.780Z,40
2016-12-25T09:14:47.825Z,40
2016-12-25T09:15:47.509Z,40
2016-12-25T09:16:47.749Z,40
2016-12-25T09:17:48.005Z,45
2016-12-25T09:18:47.661Z,50
2016-12-25T09:19:47.623Z,55
2016-12-25T09:20:47.279Z,55
2016-12-25T09:21:46.934Z,55
2016-12-25T09:22:47.803Z,50
2016-12-25T09:23:47.767Z,50
2016-12-25T09:24:47.125Z,50
2016-12-25T09:25:46.788Z,50
2016-12-25T09:26:47.655Z,55
2016-12-25T09:27:47.309Z,55
2016-12-25T09:28:47.594Z,60
2016-12-25T09:29:47.230Z,60
2016-12-25T09:30:47.213Z,60
2016-12-25T09:31:47.470Z,65
2016-12-25T09:32:47.409Z,60
2016-12-25T09:33:47.378Z,60
2016-12-25T09:34:47.044Z,60
2016-12-25T09:35:47.305Z,65
2016-12-25T09:36:46.352Z,70
2016-12-25T09:37:47.215Z,75
2016-12-25T09:38:46.881Z,75
2016-12-25T09:39:47.137Z,80
2016-12-25T09:40:46.804Z,85
2016-12-25T09:41:46.760Z,95
2016-12-25T09:42:46.729Z,100
2016-12-25T09:43:46.697Z,100
2016-12-25T09:44:46.641Z,95
2016-12-25T09:45:46.296Z,90
2016-12-25T09:46:46.264Z,90
2016-12-25T09:47:46.531Z,95
2016-12-25T09:48:46.179Z,95
2016-12-25T09:49:46.749Z,90
2016-12-25T09:50:46.710Z,90
2016-12-25T09:51:46.365Z,85
2016-12-25T09:52:46.032Z,85
2016-12-25T09:53:45.982Z,90
2016-12-25T09:54:46.553Z,90
2016-12-25T09:55:45.915Z,90
2016-12-25T09:56:45.874Z,90
2016-12-25T09:57:46.434Z,90
2016-12-25T09:58:45.799Z,95
2016-12-25T09:59:46.061Z,95
2016-12-25T10:00:45.718Z,100
2016-12-25T10:01:46.322Z,100
2016-12-25T10:02:45.941Z,100
2016-12-25T10:03:46.214Z,100
2016-12-25T10:04:46.168Z,100
2016-12-25T10:05:46.132Z,100
2016-12-25T10:06:46.092Z,100
2016-12-25T10:07:45.752Z,95
2016-12-25T10:08:45.714Z,95
2016-12-25T10:09:46.002Z,95
2016-12-25T10:10:45.628Z,95
2016-12-25T10:11:45.595Z,95
2016-12-25T10:12:45.857Z,90
2016-12-25T10:13:45.219Z,90
2016-12-25T10:14:45.172Z,85
2016-12-25T10:15:45.435Z,85
2016-12-25T10:16:45.395Z,90
2016-12-25T10:17:45.668Z,95
2016-12-25T10:18:45.619Z,95
2016-12-25T10:19:45.594Z,95
2016-12-25T10:20:45.126Z,100
2016-12-25T10:21:45.501Z,100
2016-12-25T10:22:44.861Z,105
2016-12-25T10:23:45.157Z,115
2016-12-25T10:24:44.789Z,120
2016-12-25T10:25:45.048Z,120
2016-12-25T10:26:45.312Z,120
2016-12-25T10:27:45.285Z,120
2016-12-25T10:28:44.971Z,120
2016-12-25T10:29:44.589Z,120
2016-12-25T10:30:45.161Z,125
2016-12-25T10:31:44.813Z,125
2016-12-25T10:32:44.773Z,125
2016-12-25T10:33:44.738Z,125
2016-12-25T10:34:44.408Z,120
2016-12-25T10:35:44.666Z,120
2016-12-25T10:36:44.624Z,125
2016-12-25T10:37:44.584Z,135
2016-12-25T10:38:44.556Z,135
2016-12-25T10:39:44.506Z,145
2016-12-25T10:40:44.161Z,160
2016-12-25T10:41:44.126Z,180
2016-12-25T10:42:44.396Z,190
2016-12-25T10:43:44.676Z,190
2016-12-25T10:44:44.318Z,190
2016-12-25T10:45:44.577Z,225
2016-12-25T10:46:44.535Z,235
2016-12-25T10:47:43.891Z,225
2016-12-25T10:48:44.466Z,220
2016-12-25T10:49:44.427Z,225
2016-12-25T10:50:44.087Z,235
2016-12-25T10:51:44.383Z,235
2016-12-25T10:52:44.305Z,225
2016-12-25T10:53:44.293Z,215
2016-12-25T10:54:43.926Z,200
2016-12-25T10:55:44.197Z,180
2016-12-25T10:56:44.160Z,170
2016-12-25T10:57:43.535Z,170
2016-12-25T10:58:43.787Z,185
2016-12-25T10:59:43.755Z,215
2016-12-25T11:00:43.404Z,205
2016-12-25T11:01:43.666Z,220
2016-12-25T11:02:43.634Z,230
2016-12-25T11:03:42.990Z,225
2016-12-25T11:04:43.573Z,215
2016-12-25T11:05:43.520Z,200
2016-12-25T11:06:43.479Z,185
2016-12-25T11:07:43.142Z,170
2016-12-25T11:08:43.411Z,160
2016-12-25T11:09:43.675Z,155
2016-12-25T11:10:43.638Z,160
2016-12-25T11:11:43.594Z,160
2016-12-25T11:12:42.963Z,165
2016-12-25T11:13:43.222Z,175
2016-12-25T11:14:43.187Z,170
2016-12-25T11:15:43.146Z,170
2016-12-25T11:16:43.411Z,165
2016-12-25T11:17:43.081Z,165
2016-12-25T11:18:42.730Z,160
2016-12-25T11:19:42.722Z,155
2016-12-25T11:20:42.660Z,155
2016-12-25T11:21:42.928Z,160
2016-12-25T11:22:42.901Z,160
2016-12-25T11:23:42.848Z,160
2016-12-25T11:24:42.823Z,155
2016-12-25T11:25:42.471Z,155
2016-12-25T11:26:43.043Z,150
2016-12-25T11:27:42.703Z,145
2016-12-25T11:28:42.671Z,140
2016-12-25T11:29:42.625Z,135
2016-12-25T11:30:42.288Z,135
2016-12-25T11:31:42.555Z,140
2016-12-25T11:32:42.812Z,125
2016-12-25T11:33:42.473Z,125
2016-12-25T11:34:42.440Z,125
2016-12-25T11:35:42.103Z,130
2016-12-25T11:36:42.669Z,145
2016-12-25T11:37:42.627Z,150
2016-12-25T11:38:42.598Z,150
2016-12-25T11:39:41.951Z,150
2016-12-25T11:40:42.214Z,155
2016-12-25T11:41:42.187Z,155
2016-12-25T11:42:42.137Z,155
2016-12-25T11:43:41.797Z,155
2016-12-25T11:44:42.365Z,165
2016-12-25T11:45:42.037Z,190
2016-12-25T11:46:42.296Z,185
2016-12-25T11:47:41.664Z,175
2016-12-25T11:48:41.910Z,185
2016-12-25T11:49:41.573Z,185
2016-12-25T11:50:41.843Z,190
2016-12-25T11:51:42.280Z,190
2016-12-25T11:52:42.082Z,200
2016-12-25T11:53:42.027Z,195
2016-12-25T11:54:41.407Z,180
2016-12-25T11:55:41.351Z,165
2016-12-25T11:56:41.644Z,170
2016-12-25T11:57:41.606Z,185
2016-12-25T11:58:41.851Z,200
2016-12-25T11:59:41.532Z,185
2016-12-25T12:00:41.768Z,175
2016-12-25T12:01:41.132Z,170
2016-12-25T12:02:41.401Z,165
2016-12-25T12:03:41.054Z,160
2016-12-25T12:04:41.316Z,155
2016-12-25T12:05:41.589Z,150
2016-12-25T12:06:40.940Z,140
2016-12-25T12:07:41.214Z,135
2016-12-25T12:08:41.483Z,145
2016-12-25T12:09:40.834Z,140
2016-12-25T12:10:41.093Z,145
2016-12-25T12:11:41.359Z,155
2016-12-25T12:12:41.041Z,155
2016-12-25T12:13:40.683Z,160
2016-12-25T12:14:40.341Z,160
2016-12-25T12:15:41.212Z,150
2016-12-25T12:16:41.175Z,140
2016-12-25T12:17:41.141Z,140
2016-12-25T12:18:41.098Z,135
2016-12-25T12:19:41.067Z,140
2016-12-25T12:20:40.749Z,140
2016-12-25T12:21:40.379Z,130
2016-12-25T12:22:40.647Z,120
2016-12-25T12:23:40.919Z,115
2016-12-25T12:24:40.584Z,120
2016-12-25T12:25:40.540Z,125
2016-12-25T12:26:40.813Z,135
2016-12-25T12:27:40.160Z,140
2016-12-25T12:28:40.430Z,140
2016-12-25T12:29:40.387Z,135
2016-12-25T12:30:40.053Z,130
2016-12-25T12:31:40.019Z,125
2016-12-25T12:32:40.582Z,120
2016-12-25T12:33:40.237Z,115
2016-12-25T12:34:40.513Z,115
2016-12-25T12:35:40.473Z,115
2016-12-25T12:36:40.440Z,115
2016-12-25T12:37:40.391Z,115
2016-12-25T12:38:40.057Z,120
2016-12-25T12:39:40.015Z,110
2016-12-25T12:40:40.289Z,110
2016-12-25T12:41:39.935Z,110
2016-12-25T12:42:40.203Z,110
2016-12-25T12:43:40.165Z,110
2016-12-25T12:44:39.524Z,120
2016-12-25T12:45:39.796Z,120
2016-12-25T12:46:39.754Z,115
2016-12-25T12:47:40.016Z,110
2016-12-25T12:48:39.076Z,110
2016-12-25T12:49:39.073Z,110
2016-12-25T12:50:39.906Z,110
2016-12-25T12:51:39.878Z,115
2016-12-25T12:52:39.531Z,120
2016-12-25T12:53:39.793Z,125
2016-12-25T12:54:39.451Z,125
2016-12-25T12:55:39.721Z,120
2016-12-25T12:56:39.684Z,115
2016-12-25T12:57:39.644Z,115
2016-12-25T12:58:39.613Z,115
2016-12-25T12:59:39.274Z,115
2016-12-25T13:00:39.530Z,115
2016-12-25T13:01:39.192Z,115
2016-12-25T13:02:39.491Z,115
2016-12-25T13:03:39.418Z,110
2016-12-25T13:04:39.395Z,105
2016-12-25T13:05:38.741Z,110
2016-12-25T13:06:39.307Z,100
2016-12-25T13:07:38.969Z,100
2016-12-25T13:08:38.641Z,100
2016-12-25T13:09:38.595Z,105
2016-12-25T13:10:39.152Z,105
2016-12-25T13:11:38.822Z,110
2016-12-25T13:12:39.082Z,105
2016-12-25T13:13:39.048Z,100
2016-12-25T13:14:38.709Z,100
2016-12-25T13:15:38.672Z,100
2016-12-25T13:16:38.940Z,100
2016-12-25T13:17:37.989Z,95
2016-12-25T13:18:38.562Z,95
2016-12-25T13:19:38.212Z,95
2016-12-25T13:20:38.486Z,100
2016-12-25T13:21:38.446Z,100
2016-12-25T13:22:38.408Z,100
2016-12-25T13:23:38.371Z,95
2016-12-25T13:24:38.332Z,95
2016-12-25T13:25:38.601Z,95
2016-12-25T13:26:38.555Z,90
2016-12-25T13:27:37.928Z,90
2016-12-25T13:28:38.484Z,85
2016-12-25T13:29:38.146Z,80
2016-12-25T13:30:38.408Z,85
2016-12-25T13:31:37.780Z,90
2016-12-25T13:32:38.042Z,90
2016-12-25T13:33:38.295Z,90
2016-12-25T13:34:38.262Z,90
2016-12-25T13:35:38.229Z,95
2016-12-25T13:36:38.471Z,90
2016-12-25T13:37:38.396Z,80
2016-12-25T13:38:38.653Z,80
2016-12-25T13:39:38.078Z,75
2016-12-25T13:40:38.037Z,75
2016-12-25T13:41:38.026Z,80
2016-12-25T13:42:37.665Z,80
2016-12-25T13:43:37.946Z,80
2016-12-25T13:44:37.586Z,80
2016-12-25T13:45:37.555Z,85
2016-12-25T13:46:37.510Z,85
2016-12-25T13:47:37.483Z,85
2016-12-25T13:48:37.745Z,85
2016-12-25T13:49:37.703Z,80
2016-12-25T13:50:37.363Z,80
2016-12-25T13:51:37.639Z,75
2016-12-25T13:52:37.592Z,70
2016-12-25T13:53:37.569Z,70
2016-12-25T13:54:37.519Z,70
2016-12-25T13:55:37.173Z,70
2016-12-25T13:56:36.835Z,65
2016-12-25T13:57:37.407Z,65
2016-12-25T13:58:37.375Z,60
2016-12-25T13:59:37.061Z,60
2016-12-25T14:00:36.999Z,55
2016-12-25T14:01:37.255Z,55
2016-12-25T14:02:37.218Z,55
2016-12-25T14:03:36.275Z,55
2016-12-25T14:04:37.146Z,55
2016-12-25T14:05:37.107Z,50
2016-12-25T14:06:37.070Z,50
2016-12-25T14:07:37.026Z,55
2016-12-25T14:08:36.997Z,55
2016-12-25T14:09:36.358Z,55
2016-12-25T14:10:36.622Z,55
2016-12-25T14:11:36.580Z,55
2016-12-25T14:12:36.853Z,55
2016-12-25T14:13:36.507Z,55
2016-12-25T14:14:36.467Z,50
2016-12-25T14:15:36.437Z,50
2016-12-25T14:16:36.394Z,50
2016-12-25T14:17:36.362Z,50
2016-12-25T14:18:36.624Z,50
2016-12-25T14:19:35.975Z,50
2016-12-25T14:20:36.253Z,50
2016-12-25T14:21:36.510Z,50
2016-12-25T14:22:35.874Z,50
2016-12-25T14:23:36.134Z,50
2016-12-25T14:24:35.796Z,50